Main page
METAR-TAF:

METAR-TAF

Airports :

Cap. FAP Pedro Canga Rodríguez Airport

Tumbes, Peru

latitude: 03-33S, longitude: 080-24W, elevation: 25 m

Current weather observation

The report was made 17 hours and 8 minutes ago, at 19:00 UTC
Wind 10 kt from the North
Temperature 31°C
Humidity 59%
Pressure 1008 hPa
Visibility 10 km or more
Scattered clouds at a height of 2000 ft

METAR: SPME 311900Z 36010KT 9999 SCT020 31/22 Q1008 RMK BIRD HAZARD RWY 32/14 PP000

Time: 07:08 (12:08 UTC)

Forecast

The report was made 1 hour and 8 minutes ago, at 11:00 UTC
Forecast valid from 01 at 12 UTC to 02 at 12 UTC
Wind 2 kt from variable directions
Visibility 10 km or more
Broken clouds at a height of 2000 ft
From 01 at 1500 UTC
Wind 10 kt from the North
Visibility 10 km or more
Scattered clouds at a height of 2000 ft
Becoming
from 01 at 23 UTC to 02 at 01 UTC
Wind 2 kt from variable directions

TAF: SPME 011100Z 0112/0212 VRB02KT 9999 BKN020 TX30/0119Z TN23/0211Z FM011500 01010KT 9999 SCT020 BECMG 0123/0201 VRB02KT

Weather observations and forecasts of more than 4000 airports (METAR and TAF reports).

The available stations are represented by yellow and red dots on the map.

Hover mouse over dot to see the name of the station.

Then click to see weather observations and forecasts.

To change the map : click on the green buttons with a black cross to zoom in, on the green button with a dash to zoom out, or on the green arrows for adjacent maps.


METAR-TAF: